Flight Track Log - Related Links

Times and Time Zones

All times are in EDT time to prevent confusion due to time zone crossing. See the N560KL flight status page for this flight to view local times or setup timezone preferences in your user account.

Time Position Orientation Groundspeed Altitude Reporting Facility
EDT Latitude Longitude Course Direction KTS MPH feet Rate Location/Type
Sun 02:57:00 PM 41.7223 -70.5822 North  Level FlightAware Approximate
Sun 02:58:00 PM 41.7788 -70.5772 North  Level FlightAware Approximate
Sun 02:59:00 PM 41.8352 -70.5723 North  Level FlightAware Approximate
Sun 02:59:15 PM 41.7333 -70.6833 317° Northwest 255 293 4,000  Level KA90
Sun 03:00:00 PM 41.8917 -70.5674 North  Level FlightAware Approximate
Sun 03:00:34 PM 41.8167 -70.7500 329° Northwest 254 292 4,000  Level KA90
Sun 03:01:00 PM 41.9353 -70.6108 317° Northwest  Level FlightAware Approximate
Sun 03:01:34 PM 41.8667 -70.7833 334° Northwest 257 296 4,000  Level KA90
Sun 03:02:00 PM 41.9768 -70.6626 317° Northwest  Level FlightAware Approximate
Sun 03:02:34 PM 41.9167 -70.8667 309° West 258 297 3,900  Level KA90
Sun 03:03:00 PM 42.0182 -70.7145 317° Northwest  Level FlightAware Approximate
Sun 03:03:34 PM 41.9667 -70.9167 323° Northwest 240 276 3,900  Level KA90
Sun 03:04:00 PM 42.0596 -70.7664 317° Northwest  Level FlightAware Approximate
Sun 03:04:34 PM 42.0000 -71.0000 298° West 235 270 3,400  Level KA90
Sun 03:05:34 PM 42.0333 -71.0667 304° West 232 267 3,000 -250 Descending KA90
Sun 03:06:34 PM 42.0667 -71.1500 298° West 227 261 2,900  Descending KA90
Sun 03:07:29 PM 42.0833 -71.2167 289° West 239 275 3,000 50 Climbing KA90
Sun 03:08:35 PM 42.1167 -71.3167 294° West 239 275 3,000  Level KA90
Sun 03:09:35 PM 42.1833 -71.3667 331° Northwest 246 283 3,000  Level KA90
Sun 03:10:29 PM 42.2333 -71.4167 323° Northwest 248 285 3,000  Level KA90
Sun 03:11:35 PM 42.3000 -71.4333 350° North 251 289 3,000  Level KA90
Sun 03:12:35 PM 42.3667 -71.4500 350° North 247 284 3,000  Level KA90
Sun 03:13:35 PM 42.4333 -71.4667 350° North 254 292 3,000 -149 Level KA90
Sun 03:14:36 PM 42.4833 -71.4000 45° Northeast 247 284 2,700 -595 Descending KA90
Sun 03:15:36 PM 42.5167 -71.3333 56° Northeast 208 239 1,800 -500 Descending KA90
Sun 03:16:36 PM 42.5167 -71.2500 90° East 219 252 1,700 -500 Descending KA90
Sun 03:17:36 PM 42.4667 -71.2333 166° South 156 180 800 -900 Descending KA90
Sun 03:19:00 PM 42.4667 -71.2833 206° Southwest  Level FlightAware Approximate
Sun 03:26:00 PM 42.4699 -71.2890 206° Southwest  Level Estimated
Sun 03:27:00 PM 42.4667 -71.2833 206° Southwest  Level FlightAware Approximate

Login

Don't have an account? Register now (free) for customized features, flight alerts, and more!